Flight Track Log - Related Links

Times and Time Zones

All times are in EDT time to prevent confusion due to time zone crossing. See the CTL18 flight status page for this flight to view local times or setup timezone preferences in your user account.

Time Position Orientation Groundspeed Altitude Reporting Facility
EDT Latitude Longitude Course Direction KTS MPH feet Rate Location/Type
08:03PM 43.3619 -84.0057 160° South  Level Estimated
08:04PM 43.3366 -83.9838 148° Southeast  Level FlightAware Approximate
08:05PM 43.3080 -83.9718 160° South  Level Estimated
08:06PM 43.2807 -83.9553 156° South  Level FlightAware Approximate
08:07PM 43.2533 -83.9388 156° South  Level FlightAware Approximate
08:08PM 43.2247 -83.9271 163° South  Level Estimated
08:09PM 43.1965 -83.9134 161° South  Level FlightAware Approximate
08:10PM 43.1683 -83.8997 161° South  Level FlightAware Approximate
08:11PM 43.1401 -83.8861 161° South  Level FlightAware Approximate
08:12PM 43.1115 -83.8746 160° South  Level Estimated
08:13PM 43.0835 -83.8603 160° South  Level FlightAware Approximate
08:14PM 43.0555 -83.8461 160° South  Level FlightAware Approximate
08:15PM 43.0275 -83.8318 160° South  Level FlightAware Approximate
08:15PM 42.8914 -83.7658 161° South 144 166 5,100  Level Cleveland Center
08:16PM 42.9995 -83.8176 160° South  Level FlightAware Approximate
08:16PM 42.8503 -83.7439 159° South 142 163 5,100  Level Cleveland Center
08:17PM 42.9715 -83.8033 160° South  Level FlightAware Approximate
08:17PM 42.8114 -83.7247 160° South 144 166 5,100  Level Cleveland Center
08:18PM 42.9435 -83.7891 160° South  Level FlightAware Approximate
08:18PM 42.7719 -83.7144 169° South 141 162 5,000  Level Cleveland Center
08:19PM 42.9154 -83.7749 160° South  Level FlightAware Approximate
08:19PM 42.7350 -83.6983 162° South 140 161 5,000  Level Cleveland Center
08:20PM 42.6978 -83.6853 166° South 140 161 5,000 49 Level Cleveland Center
08:21PM 42.6583 -83.6747 169° South 141 162 5,100 49 Climbing Cleveland Center
08:22PM 42.6192 -83.6589 163° South 142 163 5,100  Level Cleveland Center
08:23PM 42.5819 -83.6456 165° South 143 165 5,100 -49 Level Cleveland Center
08:24PM 42.5386 -83.6294 165° South 143 165 5,000 -295 Descending Cleveland Center
08:25PM 42.4994 -83.6164 166° South 155 178 4,500 -492 Descending Cleveland Center
08:26PM 42.4561 -83.6031 167° South 153 176 4,000 -517 Descending Cleveland Center
08:27PM 42.4167 -83.5897 166° South 149 171 3,500 -517 Descending Cleveland Center
08:28PM 42.3775 -83.5794 169° South 147 169 3,000 -246 Descending Cleveland Center
08:29PM 42.3422 -83.5667 165° South 132 152 3,000 -422 Level Cleveland Center
08:30PM 42.2992 -83.5450 160° South 156 180 2,100 -732 Descending Cleveland Center
08:31PM 42.2683 -83.5183 147° Southeast 130 150 1,500 -643 Descending Cleveland Center

Login

Don't have an account? Register now (free) for customized features, flight alerts, and more!